Main page
METAR-TAF:

METAR-TAF

Airports :

Istanbul Sabiha Gökçen, Turkey

Sabiha Gökçen International Airport

latitude: 40-53-55N, longitude: 029-18-33E, elevation: 95 m

Current weather observation

The report was made 40 minutes ago, at 08:20 UTC
Wind 9 kt from the North/Northeast
Temperature 23°C
Humidity 44%
Pressure 1012 hPa
Visibility 10 km or more
no clouds below 1500 m and no cumulonimbus

METAR: LTFJ 300820Z 02009KT CAVOK 23/10 Q1012 NOSIG RMK RWY24 36008KT

Time: 12:00 (09:00 UTC)

Forecast

The report was made 4 hours and 20 minutes ago, at 04:40 UTC
Forecast valid from 30 at 06 UTC to 01 at 06 UTC
Wind 14 kt from the North/Northeast
Visibility 10 km or more
no clouds below 1500 m and no cumulonimbus
Becoming
from 30 at 18 UTC to 30 at 21 UTC
Scattered clouds at a height of 1000 ft
Broken clouds at a height of 10000 ft

TAF: LTFJ 300440Z 3006/0106 03014KT CAVOK BECMG 3018/3021 SCT010 BKN100

Weather observations and forecasts of more than 4000 airports (METAR and TAF reports).

The available stations are represented by yellow and red dots on the map.

Hover mouse over dot to see the name of the station.

Then click to see weather observations and forecasts.

To change the map : click on the green buttons with a black cross to zoom in, on the green button with a dash to zoom out, or on the green arrows for adjacent maps.


METAR-TAF: